Time;durP1;ratioP1;P1;durP2;ratioP2;P2;SDS_P1;SDS_P2;PMS_P1;PMS_P2;Temp;Humidity;BMP_temperature;BMP_pressure;BME280_temperature;BME280_humidity;BME280_pressure;Samples;Min_cycle;Max_cycle;Signal;HPM_P1;HPM_P2
2023/09/15 00:01:21;;;;;;;5.23;2.57;;;11.80;99.90;;;;;;4873282;29;20206;-64
2023/09/15 00:03:49;;;;;;;6.27;2.70;;;11.90;99.90;;;;;;4876197;29;20197;-64
2023/09/15 00:06:16;;;;;;;5.33;2.30;;;11.70;99.90;;;;;;4880072;29;20649;-63
2023/09/15 00:08:43;;;;;;;3.33;2.27;;;11.60;99.90;;;;;;4877802;29;20198;-62
2023/09/15 00:11:15;;;;;;;7.40;2.87;;;11.70;99.90;;;;;;4874129;29;20289;-62
2023/09/15 00:13:43;;;;;;;6.50;2.77;;;11.70;99.90;;;;;;4872111;29;20690;-62
2023/09/15 00:16:10;;;;;;;9.07;2.83;;;11.70;99.90;;;;;;4860804;29;20209;-63
2023/09/15 00:18:37;;;;;;;2.90;2.53;;;11.70;99.90;;;;;;4887928;29;20233;-63
2023/09/15 00:21:05;;;;;;;6.30;2.97;;;11.70;99.90;;;;;;4887509;29;20693;-67
2023/09/15 00:23:32;;;;;;;5.27;2.80;;;11.70;99.90;;;;;;4895341;29;20605;-63
2023/09/15 00:26:02;;;;;;;6.57;2.73;;;11.70;99.90;;;;;;4873868;29;20205;-61
2023/09/15 00:28:30;;;;;;;6.87;2.80;;;11.60;99.90;;;;;;4876989;29;20573;-64
2023/09/15 00:31:00;;;;;;;5.20;2.60;;;11.60;99.90;;;;;;4862471;29;20791;-62
2023/09/15 00:33:27;;;;;;;3.97;2.90;;;11.60;99.90;;;;;;4862109;29;20224;-61
2023/09/15 00:35:54;;;;;;;3.33;2.50;;;11.60;99.90;;;;;;4890044;29;20186;-61
2023/09/15 00:38:21;;;;;;;5.03;3.57;;;11.60;99.90;;;;;;4880899;29;20614;-60
2023/09/15 00:40:49;;;;;;;4.67;3.03;;;11.60;99.90;;;;;;4870071;29;20266;-61
2023/09/15 00:43:16;;;;;;;5.33;3.20;;;11.60;99.90;;;;;;4886287;29;20197;-61
2023/09/15 00:45:43;;;;;;;6.07;3.13;;;11.50;99.90;;;;;;4865101;29;20205;-62
2023/09/15 00:48:11;;;;;;;6.23;3.77;;;11.50;99.90;;;;;;4878405;29;20308;-62
2023/09/15 00:50:38;;;;;;;6.63;3.00;;;11.50;99.90;;;;;;4870961;29;20703;-70
2023/09/15 00:53:10;;;;;;;7.67;3.57;;;11.50;99.90;;;;;;4847133;29;20646;-62
2023/09/15 00:55:38;;;;;;;4.27;2.90;;;11.40;99.90;;;;;;4887232;29;20265;-66
2023/09/15 00:58:11;;;;;;;5.40;3.23;;;11.40;99.90;;;;;;4895823;29;20197;-63
2023/09/15 01:00:44;;;;;;;7.60;2.90;;;11.40;99.90;;;;;;4866600;29;20201;-62
2023/09/15 01:03:20;;;;;;;4.37;2.93;;;11.40;99.90;;;;;;4870690;29;20253;-61
2023/09/15 01:05:47;;;;;;;17.33;3.37;;;11.30;99.90;;;;;;4866505;29;20221;-61
2023/09/15 01:08:14;;;;;;;7.70;3.30;;;11.40;99.90;;;;;;4859816;29;20253;-62
2023/09/15 01:10:41;;;;;;;4.43;3.17;;;11.30;99.90;;;;;;4866105;29;20216;-64
2023/09/15 01:13:08;;;;;;;9.57;3.73;;;11.40;99.90;;;;;;4895592;29;20244;-61
2023/09/15 01:15:38;;;;;;;6.60;3.07;;;11.30;99.90;;;;;;4878435;29;20216;-61
2023/09/15 01:18:29;;;;;;;6.23;3.20;;;11.30;99.90;;;;;;4887515;29;20197;-60
2023/09/15 01:21:03;;;;;;;4.67;3.37;;;11.30;99.90;;;;;;4876377;29;20717;-60
2023/09/15 01:23:52;;;;;;;6.43;3.00;;;11.20;99.90;;;;;;4866026;29;20205;-60
2023/09/15 01:26:32;;;;;;;4.40;3.30;;;11.30;99.90;;;;;;4861224;29;20212;-70
2023/09/15 01:29:18;;;;;;;4.10;2.80;;;11.20;99.90;;;;;;4884756;29;20276;-61
2023/09/15 01:31:47;;;;;;;4.97;3.17;;;11.20;99.90;;;;;;4886849;29;20726;-62
2023/09/15 01:34:16;;;;;;;4.87;3.23;;;11.20;99.90;;;;;;4859235;29;20214;-60
2023/09/15 01:36:44;;;;;;;5.33;2.57;;;11.20;99.90;;;;;;4863817;29;20201;-61
2023/09/15 01:39:11;;;;;;;6.17;2.97;;;11.20;99.90;;;;;;4871323;29;20203;-62
2023/09/15 01:41:38;;;;;;;5.97;3.00;;;11.20;99.90;;;;;;4859303;29;20206;-60
2023/09/15 01:44:05;;;;;;;4.60;2.93;;;11.10;99.90;;;;;;4886111;29;20634;-62
2023/09/15 01:46:32;;;;;;;7.13;2.73;;;11.10;99.90;;;;;;4870350;29;20289;-62
2023/09/15 01:49:00;;;;;;;11.83;2.50;;;11.10;99.90;;;;;;4876647;29;20590;-63
2023/09/15 01:51:27;;;;;;;5.93;3.13;;;11.10;99.90;;;;;;4859280;29;20742;-62
2023/09/15 01:53:57;;;;;;;3.33;2.80;;;11.00;99.90;;;;;;4881982;29;20202;-63
2023/09/15 01:56:28;;;;;;;6.83;3.03;;;11.00;99.90;;;;;;4888645;29;20201;-64
2023/09/15 01:58:55;;;;;;;6.77;3.37;;;11.10;99.90;;;;;;4874357;29;20669;-64
2023/09/15 02:05:24;;;;;;;10.47;6.23;;;11.10;99.90;;;;;;4856764;29;20190;-69
2023/09/15 02:07:52;;;;;;;5.77;4.53;;;11.10;99.90;;;;;;4867212;29;20232;-69
2023/09/15 02:10:20;;;;;;;6.33;4.50;;;11.00;99.90;;;;;;4885696;29;20843;-72
2023/09/15 02:12:49;;;;;;;4.53;3.33;;;11.10;99.90;;;;;;4878413;29;20185;-69
2023/09/15 02:15:19;;;;;;;6.77;4.30;;;11.10;99.90;;;;;;4867740;29;20240;-60
2023/09/15 02:17:49;;;;;;;4.63;3.20;;;11.00;99.90;;;;;;4864153;29;20204;-62
2023/09/15 02:20:18;;;;;;;10.97;5.40;;;10.90;99.90;;;;;;4853085;29;20206;-60
2023/09/15 02:22:46;;;;;;;8.07;4.70;;;11.00;99.90;;;;;;4875027;29;20199;-64
2023/09/15 02:25:13;;;;;;;6.47;4.03;;;10.90;99.90;;;;;;4880752;29;20643;-64
2023/09/15 02:27:40;;;;;;;3.63;3.10;;;10.90;99.90;;;;;;4860365;29;20197;-71
2023/09/15 02:30:08;;;;;;;4.53;2.93;;;10.90;99.90;;;;;;4874105;29;20666;-65
2023/09/15 02:32:35;;;;;;;5.00;3.13;;;10.90;99.90;;;;;;4875131;29;20297;-65
2023/09/15 02:35:02;;;;;;;5.97;3.53;;;10.90;99.90;;;;;;4869412;29;20214;-65
2023/09/15 02:37:29;;;;;;;8.50;3.13;;;10.90;99.90;;;;;;4859286;29;20202;-68
2023/09/15 02:39:57;;;;;;;4.60;3.50;;;10.80;99.90;;;;;;4865866;29;20214;-65
2023/09/15 02:42:25;;;;;;;10.30;6.20;;;10.70;99.90;;;;;;4845812;29;20210;-65
2023/09/15 02:44:53;;;;;;;11.93;6.83;;;10.70;99.90;;;;;;4861669;29;20234;-64
2023/09/15 02:47:19;;;;;;;10.60;5.60;;;10.80;99.90;;;;;;4859033;29;20217;-64
2023/09/15 02:49:46;;;;;;;17.57;8.67;;;10.80;99.90;;;;;;4874760;29;20213;-63
2023/09/15 02:52:15;;;;;;;5.93;3.70;;;10.80;99.90;;;;;;4874396;29;20221;-64
2023/09/15 02:54:42;;;;;;;5.93;3.13;;;10.80;99.90;;;;;;4877527;29;20734;-63
2023/09/15 02:57:10;;;;;;;5.60;3.50;;;10.80;99.90;;;;;;4872078;29;20203;-63
2023/09/15 02:59:37;;;;;;;9.97;3.40;;;10.80;99.90;;;;;;4866049;29;20198;-61
2023/09/15 03:02:05;;;;;;;6.53;3.37;;;10.80;99.90;;;;;;4871197;29;20277;-62
2023/09/15 03:04:31;;;;;;;6.73;3.67;;;10.80;99.90;;;;;;4858563;29;20226;-61
2023/09/15 03:06:59;;;;;;;6.13;3.60;;;10.80;99.90;;;;;;4860160;29;20213;-65
2023/09/15 03:09:28;;;;;;;7.43;3.63;;;10.80;99.90;;;;;;4878498;29;20671;-67
2023/09/15 03:11:55;;;;;;;4.10;3.27;;;10.80;99.90;;;;;;4864231;29;20620;-65
2023/09/15 03:14:22;;;;;;;13.67;4.00;;;10.70;99.90;;;;;;4884272;29;20278;-66
2023/09/15 03:16:50;;;;;;;6.07;4.23;;;10.70;99.90;;;;;;4879959;29;20236;-67
2023/09/15 03:19:17;;;;;;;7.70;3.47;;;10.70;99.90;;;;;;4898326;29;20212;-61
2023/09/15 03:21:45;;;;;;;4.47;3.50;;;10.70;99.90;;;;;;4885421;29;20213;-60
2023/09/15 03:24:13;;;;;;;4.93;3.30;;;10.70;99.90;;;;;;4869079;29;20213;-64
2023/09/15 03:26:40;;;;;;;4.70;3.40;;;10.60;99.90;;;;;;4878620;29;20582;-65
2023/09/15 03:29:08;;;;;;;6.13;4.23;;;10.60;99.90;;;;;;4885213;29;20683;-67
2023/09/15 03:31:34;;;;;;;5.40;3.67;;;10.60;99.90;;;;;;4877994;29;20266;-66
2023/09/15 03:34:01;;;;;;;6.63;3.43;;;10.50;99.90;;;;;;4877343;29;20273;-64
2023/09/15 03:36:29;;;;;;;5.97;3.50;;;10.50;99.90;;;;;;4871306;29;20202;-66
2023/09/15 03:38:57;;;;;;;3.63;3.10;;;10.50;99.90;;;;;;4897789;29;20198;-67
2023/09/15 03:41:27;;;;;;;6.83;3.53;;;10.40;99.90;;;;;;4877093;29;20222;-68
2023/09/15 03:43:55;;;;;;;5.57;3.40;;;10.40;99.90;;;;;;4877993;29;20559;-64
2023/09/15 03:46:23;;;;;;;5.47;3.30;;;10.40;99.90;;;;;;4876838;29;20210;-73
2023/09/15 03:48:50;;;;;;;7.83;3.83;;;10.40;99.90;;;;;;4875229;29;21035;-67
2023/09/15 03:51:17;;;;;;;4.90;3.50;;;10.40;99.90;;;;;;4878631;29;20252;-70
2023/09/15 03:53:44;;;;;;;7.97;3.90;;;10.40;99.90;;;;;;4877543;29;20232;-67
2023/09/15 03:56:11;;;;;;;6.90;3.07;;;10.40;99.90;;;;;;4868826;29;20254;-67
2023/09/15 03:58:38;;;;;;;6.00;3.87;;;10.30;99.90;;;;;;4878638;29;20271;-67
2023/09/15 04:01:08;;;;;;;4.20;2.90;;;10.30;99.90;;;;;;4877420;29;20721;-66
2023/09/15 04:03:36;;;;;;;6.63;3.07;;;10.30;99.90;;;;;;4872944;29;20541;-66
2023/09/15 04:06:04;;;;;;;5.80;3.40;;;10.20;99.90;;;;;;4876796;29;20198;-66
2023/09/15 04:08:31;;;;;;;5.83;3.73;;;10.20;99.90;;;;;;4877601;29;20216;-63
2023/09/15 04:10:58;;;;;;;4.23;3.33;;;10.20;99.90;;;;;;4876401;29;20720;-64
2023/09/15 04:13:25;;;;;;;6.80;4.00;;;10.10;99.90;;;;;;4876451;29;20941;-63
2023/09/15 04:15:52;;;;;;;4.90;3.17;;;10.10;99.90;;;;;;4860570;29;20214;-67
2023/09/15 04:18:21;;;;;;;5.33;3.80;;;10.00;99.90;;;;;;4884017;29;20200;-66
2023/09/15 04:20:51;;;;;;;9.97;3.93;;;10.10;99.90;;;;;;4865964;29;20234;-65
2023/09/15 04:23:18;;;;;;;6.80;3.47;;;10.00;99.90;;;;;;4885258;29;20206;-63
2023/09/15 04:25:45;;;;;;;3.77;3.03;;;10.10;99.90;;;;;;4879469;29;20190;-68
2023/09/15 04:28:13;;;;;;;7.83;3.70;;;10.00;99.90;;;;;;4886826;29;20264;-64
2023/09/15 04:30:42;;;;;;;7.63;3.63;;;10.00;99.90;;;;;;4866864;29;20292;-67
2023/09/15 04:33:10;;;;;;;4.73;3.70;;;10.00;99.90;;;;;;4870010;29;20231;-65
2023/09/15 04:35:40;;;;;;;4.47;3.33;;;10.00;99.90;;;;;;4872201;29;20221;-67
2023/09/15 04:38:07;;;;;;;4.63;3.40;;;9.90;99.90;;;;;;4884900;29;20212;-64
2023/09/15 04:40:34;;;;;;;6.40;3.73;;;9.90;99.90;;;;;;4854863;29;20707;-66
2023/09/15 04:43:02;;;;;;;4.20;3.47;;;9.90;99.90;;;;;;4877263;29;20641;-64
2023/09/15 04:45:38;;;;;;;5.13;3.60;;;9.90;99.90;;;;;;4866755;29;20266;-60
2023/09/15 04:48:05;;;;;;;9.13;4.03;;;9.90;99.90;;;;;;4858551;29;20641;-64
2023/09/15 04:50:36;;;;;;;7.03;3.73;;;9.90;99.90;;;;;;4865806;29;20693;-65
2023/09/15 04:53:06;;;;;;;10.13;3.77;;;9.90;99.90;;;;;;4868222;29;20213;-65
2023/09/15 04:55:34;;;;;;;4.97;3.47;;;9.90;99.90;;;;;;4874393;29;20733;-65
2023/09/15 04:58:04;;;;;;;4.20;3.10;;;9.90;99.90;;;;;;4866751;29;20201;-65
2023/09/15 05:00:34;;;;;;;5.80;4.07;;;9.90;99.90;;;;;;4845258;29;20205;-65
2023/09/15 05:03:02;;;;;;;7.17;4.17;;;9.90;99.90;;;;;;4857769;29;20230;-66
2023/09/15 05:05:30;;;;;;;5.00;3.53;;;9.90;99.90;;;;;;4860388;29;20501;-68
2023/09/15 05:07:58;;;;;;;6.67;3.90;;;9.90;99.90;;;;;;4879390;29;20200;-65
2023/09/15 05:10:25;;;;;;;5.67;3.53;;;10.00;99.90;;;;;;4853847;29;20686;-65
2023/09/15 05:12:54;;;;;;;5.83;3.50;;;10.00;99.90;;;;;;4882263;29;20224;-64
2023/09/15 05:15:22;;;;;;;9.00;4.17;;;9.90;99.90;;;;;;4863615;29;20293;-66
2023/09/15 05:17:50;;;;;;;4.73;3.33;;;10.00;99.90;;;;;;4859919;29;20216;-64
2023/09/15 05:20:17;;;;;;;3.97;3.03;;;10.00;99.90;;;;;;4849048;29;20201;-68
2023/09/15 05:22:44;;;;;;;7.97;4.03;;;10.00;99.90;;;;;;4877406;29;20236;-67
2023/09/15 05:25:11;;;;;;;6.73;3.80;;;10.00;99.90;;;;;;4857749;29;20210;-64
2023/09/15 05:27:38;;;;;;;6.07;3.60;;;10.00;99.90;;;;;;4869245;29;20589;-60
2023/09/15 05:30:07;;;;;;;4.60;3.93;;;10.10;99.90;;;;;;4862859;29;20210;-61
2023/09/15 05:32:36;;;;;;;4.20;3.57;;;10.10;99.90;;;;;;4874878;29;20229;-61
2023/09/15 05:35:04;;;;;;;6.13;3.93;;;10.20;99.90;;;;;;4862124;29;20194;-64
2023/09/15 05:37:32;;;;;;;5.17;4.10;;;10.20;99.90;;;;;;4859294;29;20270;-64
2023/09/15 05:39:59;;;;;;;4.93;3.77;;;10.30;99.90;;;;;;4870096;29;20210;-65
2023/09/15 05:42:26;;;;;;;5.57;3.90;;;10.40;99.90;;;;;;4869550;29;20209;-65
2023/09/15 05:44:54;;;;;;;5.27;4.57;;;10.40;99.90;;;;;;4875933;29;20229;-63
2023/09/15 05:47:22;;;;;;;8.67;3.93;;;10.50;99.90;;;;;;4877652;29;20221;-60
2023/09/15 05:49:49;;;;;;;4.97;4.33;;;10.50;99.90;;;;;;4872557;29;20205;-60
2023/09/15 05:52:16;;;;;;;6.40;4.13;;;10.70;99.90;;;;;;4874539;29;20566;-61
2023/09/15 05:54:44;;;;;;;6.97;5.47;;;11.60;99.90;;;;;;4864099;29;20527;-63
2023/09/15 05:57:11;;;;;;;13.27;5.93;;;13.50;99.90;;;;;;4872232;29;21064;-62
2023/09/15 05:59:38;;;;;;;8.47;4.10;;;14.90;99.90;;;;;;4870895;29;20483;-63
2023/09/15 06:02:07;;;;;;;4.07;2.83;;;16.10;99.90;;;;;;4871268;29;20261;-60
2023/09/15 06:04:33;;;;;;;4.77;3.07;;;16.30;99.90;;;;;;4877727;29;20284;-62
2023/09/15 06:07:01;;;;;;;4.60;2.50;;;17.30;99.90;;;;;;4882807;29;20206;-61
2023/09/15 06:09:28;;;;;;;7.22;2.78;;;17.80;99.90;;;;;;4873103;29;20281;-66
2023/09/15 06:11:55;;;;;;;5.30;2.92;;;18.40;99.90;;;;;;4875635;29;20221;-66
2023/09/15 06:14:21;;;;;;;5.70;2.53;;;19.20;99.90;;;;;;4864719;29;20273;-66
2023/09/15 06:16:49;;;;;;;3.70;2.60;;;20.50;99.90;;;;;;4874747;29;20257;-68
2023/09/15 06:19:16;;;;;;;2.67;2.30;;;20.30;99.90;;;;;;4882074;29;20204;-66
2023/09/15 06:21:43;;;;;;;4.97;3.35;;;20.80;99.90;;;;;;4872609;29;20209;-66
2023/09/15 06:24:10;;;;;;;3.03;2.30;;;21.20;99.90;;;;;;4872388;29;20701;-62
2023/09/15 06:26:38;;;;;;;2.65;2.45;;;21.70;99.90;;;;;;4874793;29;20194;-62
2023/09/15 06:29:05;;;;;;;2.47;2.08;;;21.80;99.90;;;;;;4879231;29;20581;-64
2023/09/15 06:31:33;;;;;;;5.22;2.35;;;21.40;99.90;;;;;;4869174;29;20233;-62
2023/09/15 06:34:00;;;;;;;8.75;3.22;;;22.30;99.90;;;;;;4875672;29;20195;-70
2023/09/15 06:36:27;;;;;;;6.13;2.70;;;23.40;99.90;;;;;;4884454;29;20293;-75
2023/09/15 06:38:54;;;;;;;3.00;2.22;;;23.70;99.90;;;;;;4878006;29;20670;-70
2023/09/15 06:41:21;;;;;;;4.53;2.38;;;24.70;99.90;;;;;;4877704;29;20198;-68
2023/09/15 06:43:49;;;;;;;5.97;2.70;;;23.20;99.90;;;;;;4873023;29;20292;-63
2023/09/15 06:46:21;;;;;;;5.38;2.15;;;23.20;99.90;;;;;;4872987;29;20595;-62
2023/09/15 06:48:49;;;;;;;3.90;2.42;;;23.60;99.90;;;;;;4889965;29;20201;-67
2023/09/15 06:51:16;;;;;;;4.22;2.67;;;24.30;99.90;;;;;;4887061;29;20274;-63
2023/09/15 06:53:43;;;;;;;3.03;2.60;;;25.00;99.90;;;;;;4874115;29;20253;-62
2023/09/15 06:56:10;;;;;;;3.45;2.60;;;23.40;99.90;;;;;;4875100;29;20189;-62
2023/09/15 06:58:37;;;;;;;6.18;2.70;;;22.30;99.90;;;;;;4874267;29;20225;-62
2023/09/15 07:01:04;;;;;;;3.67;2.30;;;22.20;99.90;;;;;;4872888;29;20238;-62
2023/09/15 07:03:31;;;;;;;4.57;2.50;;;23.70;99.90;;;;;;4866963;29;20208;-68
2023/09/15 07:05:58;;;;;;;2.55;2.10;;;24.40;99.90;;;;;;4874449;29;20209;-68
2023/09/15 07:08:25;;;;;;;5.93;2.42;;;26.60;99.90;;;;;;4879244;29;20253;-68
2023/09/15 07:10:52;;;;;;;3.40;2.50;;;26.10;99.90;;;;;;4858593;29;20209;-68
2023/09/15 07:13:19;;;;;;;3.00;2.55;;;24.00;99.90;;;;;;4871302;29;20221;-64
2023/09/15 07:15:47;;;;;;;2.85;2.25;;;24.00;99.90;;;;;;4874955;29;20202;-62
2023/09/15 07:18:14;;;;;;;3.08;2.05;;;25.00;99.90;;;;;;4886524;29;20193;-68
2023/09/15 07:20:42;;;;;;;3.63;2.33;;;25.30;99.90;;;;;;4858217;29;20202;-68
2023/09/15 07:23:09;;;;;;;2.63;1.98;;;26.70;99.90;;;;;;4868832;29;20222;-68
2023/09/15 07:25:37;;;;;;;3.25;2.28;;;29.20;99.90;;;;;;4855168;29;20591;-67
2023/09/15 07:28:04;;;;;;;6.03;2.38;;;27.70;99.90;;;;;;4876181;29;20554;-62
2023/09/15 07:30:31;;;;;;;3.30;2.35;;;29.70;99.90;;;;;;4861082;29;20221;-62
2023/09/15 07:32:59;;;;;;;5.45;2.63;;;31.10;99.90;;;;;;4862294;29;20734;-69
2023/09/15 07:35:26;;;;;;;3.75;2.40;;;31.10;99.90;;;;;;4865180;29;20785;-63
2023/09/15 07:37:53;;;;;;;4.57;2.75;;;30.80;99.90;;;;;;4870846;29;20201;-63
2023/09/15 07:40:22;;;;;;;4.03;2.55;;;31.90;99.90;;;;;;4875959;29;20555;-62
2023/09/15 07:42:51;;;;;;;5.53;2.72;;;31.70;99.90;;;;;;4876362;29;20206;-66
2023/09/15 07:45:20;;;;;;;3.30;2.85;;;31.10;99.90;;;;;;4848859;29;20883;-68
2023/09/15 07:47:47;;;;;;;4.07;2.47;;;32.10;99.90;;;;;;4874690;29;20212;-68
2023/09/15 07:50:16;;;;;;;3.75;2.83;;;29.00;99.90;;;;;;4871217;29;20201;-69
2023/09/15 07:52:45;;;;;;;3.42;2.35;;;29.60;99.90;;;;;;4869615;29;20241;-68
2023/09/15 07:55:12;;;;;;;3.15;2.47;;;30.30;99.90;;;;;;4872822;29;20671;-68
2023/09/15 07:57:40;;;;;;;3.90;2.25;;;31.00;99.90;;;;;;4866173;29;20735;-68
2023/09/15 08:00:10;;;;;;;4.72;2.97;;;32.30;99.90;;;;;;4833194;29;20305;-68
2023/09/15 08:02:40;;;;;;;5.47;3.00;;;30.00;99.90;;;;;;4874677;29;20564;-68
2023/09/15 08:05:08;;;;;;;3.40;2.58;;;32.10;99.90;;;;;;4880258;29;20666;-68
2023/09/15 08:07:34;;;;;;;7.07;2.30;;;31.40;99.90;;;;;;4873942;29;20615;-68
2023/09/15 08:10:03;;;;;;;5.57;3.00;;;30.70;99.90;;;;;;4875244;29;20718;-71
2023/09/15 08:12:30;;;;;;;2.88;2.45;;;28.50;99.90;;;;;;4864194;29;20225;-66
2023/09/15 08:14:57;;;;;;;3.28;2.60;;;30.10;99.90;;;;;;4869568;29;20229;-63
2023/09/15 08:17:25;;;;;;;2.97;2.47;;;32.00;99.90;;;;;;4876345;29;20264;-68
2023/09/15 08:20:01;;;;;;;4.38;2.92;;;32.10;99.90;;;;;;4874534;29;20209;-68
2023/09/15 08:22:29;;;;;;;4.22;2.90;;;33.10;99.90;;;;;;4888490;29;20216;-67
2023/09/15 08:24:58;;;;;;;4.75;2.42;;;31.70;99.90;;;;;;4874638;29;20189;-67
2023/09/15 08:27:26;;;;;;;3.67;2.55;;;33.40;99.90;;;;;;4873063;29;20689;-68
2023/09/15 08:29:53;;;;;;;4.18;2.53;;;36.10;99.90;;;;;;4870537;29;20205;-67
2023/09/15 08:32:20;;;;;;;6.18;2.78;;;33.80;99.90;;;;;;4857442;29;20241;-68
2023/09/15 08:34:47;;;;;;;3.72;2.90;;;32.80;99.90;;;;;;4874948;29;20193;-68
2023/09/15 08:37:14;;;;;;;5.47;3.03;;;32.40;99.90;;;;;;4874652;29;20671;-67
2023/09/15 08:39:41;;;;;;;4.82;2.72;;;29.60;99.90;;;;;;4876870;29;20285;-69
2023/09/15 08:42:28;;;;;;;6.53;2.70;;;32.60;99.90;;;;;;4858749;29;20205;-66
2023/09/15 08:44:57;;;;;;;4.13;2.95;;;36.20;99.90;;;;;;4867069;29;20205;-62
2023/09/15 08:47:30;;;;;;;6.72;2.80;;;37.40;99.90;;;;;;4870754;29;20208;-62
2023/09/15 08:50:00;;;;;;;3.97;2.85;;;35.50;99.90;;;;;;4882226;29;20655;-61
2023/09/15 08:52:27;;;;;;;3.65;2.60;;;34.30;99.90;;;;;;4845302;29;20230;-61
2023/09/15 08:54:56;;;;;;;5.93;2.70;;;31.20;99.90;;;;;;4873392;29;20571;-64
2023/09/15 08:57:24;;;;;;;3.63;2.92;;;33.70;99.90;;;;;;4867741;29;20680;-61
2023/09/15 08:59:53;;;;;;;3.25;2.65;;;35.80;99.90;;;;;;4877416;29;20296;-62
2023/09/15 09:02:23;;;;;;;2.85;2.50;;;38.10;99.90;;;;;;4867405;29;20245;-61
2023/09/15 09:04:51;;;;;;;3.13;2.60;;;35.10;99.90;;;;;;4871005;29;20573;-61
2023/09/15 09:07:21;;;;;;;4.82;3.22;;;36.60;99.90;;;;;;4888515;29;20218;-62
2023/09/15 09:09:48;;;;;;;3.80;3.00;;;38.50;99.90;;;;;;4868920;29;20220;-62
2023/09/15 09:12:15;;;;;;;3.33;2.78;;;37.00;99.90;;;;;;4884740;29;20216;-61
2023/09/15 09:14:42;;;;;;;2.88;2.50;;;39.70;99.90;;;;;;4885511;29;21148;-62
2023/09/15 09:17:12;;;;;;;7.20;2.90;;;40.60;99.90;;;;;;4872881;29;20550;-63
2023/09/15 09:19:42;;;;;;;4.50;2.90;;;40.10;99.90;;;;;;4871583;29;20565;-62
2023/09/15 09:22:09;;;;;;;3.47;3.15;;;39.70;99.90;;;;;;4868558;29;20228;-62
2023/09/15 09:24:37;;;;;;;4.38;2.97;;;40.20;99.90;;;;;;4873122;29;20541;-62
2023/09/15 09:27:09;;;;;;;4.32;3.05;;;39.70;99.90;;;;;;4864956;29;20230;-68
2023/09/15 09:29:37;;;;;;;3.83;2.88;;;37.80;99.90;;;;;;4874633;29;20583;-67
2023/09/15 09:32:05;;;;;;;3.90;2.83;;;35.50;99.90;;;;;;4869992;29;20240;-67
2023/09/15 09:34:32;;;;;;;3.97;2.90;;;37.30;99.90;;;;;;4868888;29;20210;-68
2023/09/15 09:37:14;;;;;;;4.07;3.15;;;37.00;99.90;;;;;;4865835;29;20612;-65
2023/09/15 09:39:41;;;;;;;4.43;3.20;;;39.20;99.90;;;;;;4872427;29;20228;-65
2023/09/15 09:42:08;;;;;;;6.30;2.85;;;38.40;99.90;;;;;;4874625;29;20262;-69
2023/09/15 09:44:36;;;;;;;3.40;3.10;;;40.60;99.90;;;;;;4866179;29;20261;-68
2023/09/15 09:47:09;;;;;;;5.53;2.83;;;37.30;99.90;;;;;;4870329;29;20193;-67
2023/09/15 09:49:37;;;;;;;4.18;3.00;;;36.50;99.90;;;;;;4871120;29;20205;-68
2023/09/15 09:52:04;;;;;;;7.90;3.33;;;36.50;99.90;;;;;;4868854;29;20194;-68
2023/09/15 09:54:34;;;;;;;3.17;2.83;;;34.70;99.90;;;;;;4871290;29;20205;-67
2023/09/15 09:57:02;;;;;;;4.28;2.85;;;37.70;99.90;;;;;;4864662;29;20233;-68
2023/09/15 09:59:29;;;;;;;3.10;2.80;;;40.00;99.90;;;;;;4886196;29;20220;-68
2023/09/15 10:01:56;;;;;;;3.13;2.78;;;40.70;99.90;;;;;;4876477;29;20197;-68
2023/09/15 10:04:23;;;;;;;2.85;2.60;;;33.50;97.90;;;;;;4870206;29;20614;-62
2023/09/15 10:06:51;;;;;;;5.05;3.08;;;35.50;99.90;;;;;;4873300;29;20277;-63
2023/09/15 10:09:21;;;;;;;6.00;2.90;;;38.00;99.90;;;;;;4875465;29;20193;-62
2023/09/15 10:11:49;;;;;;;2.88;2.65;;;39.30;99.90;;;;;;4868336;29;20201;-61
2023/09/15 10:14:17;;;;;;;3.33;2.67;;;39.70;99.90;;;;;;4883049;29;20694;-60
2023/09/15 10:16:45;;;;;;;2.83;2.63;;;38.30;99.90;;;;;;4869453;29;20308;-63
2023/09/15 10:19:14;;;;;;;3.75;2.80;;;38.50;99.90;;;;;;4875104;29;20706;-61
2023/09/15 10:21:42;;;;;;;3.50;2.67;;;32.50;98.40;;;;;;4873780;29;20241;-64
2023/09/15 10:24:11;;;;;;;3.47;2.85;;;32.10;99.90;;;;;;4874194;29;20197;-63
2023/09/15 10:26:41;;;;;;;3.75;2.80;;;34.10;99.90;;;;;;4867706;29;20202;-66
2023/09/15 10:29:15;;;;;;;3.47;2.67;;;38.50;99.90;;;;;;4868154;29;20285;-67
2023/09/15 10:31:46;;;;;;;3.22;2.70;;;39.80;99.90;;;;;;4870778;29;20697;-67
2023/09/15 10:34:16;;;;;;;3.10;2.63;;;39.60;99.90;;;;;;4854941;29;20225;-61
2023/09/15 10:36:44;;;;;;;3.92;2.88;;;35.90;99.90;;;;;;4867400;29;20194;-61
2023/09/15 10:39:16;;;;;;;5.68;3.08;;;37.80;99.90;;;;;;4870591;29;20678;-66
2023/09/15 10:41:45;;;;;;;5.47;3.05;;;35.70;99.90;;;;;;4870856;29;20574;-67
2023/09/15 10:44:13;;;;;;;3.88;2.83;;;33.00;99.90;;;;;;4883986;29;20642;-68
2023/09/15 10:46:42;;;;;;;3.10;2.80;;;31.60;99.90;;;;;;4869499;29;20285;-67
2023/09/15 10:49:19;;;;;;;4.53;3.13;;;30.90;99.90;;;;;;4858518;29;20364;-67
2023/09/15 10:52:00;;;;;;;3.03;2.80;;;33.60;99.90;;;;;;4871028;29;20406;-67
2023/09/15 10:54:32;;;;;;;3.38;3.05;;;37.10;99.90;;;;;;4870175;29;20256;-67
2023/09/15 10:57:00;;;;;;;3.97;3.25;;;38.10;99.90;;;;;;4867966;29;20273;-67
2023/09/15 10:59:28;;;;;;;4.32;3.08;;;34.90;99.90;;;;;;4869686;29;20197;-67
2023/09/15 11:01:56;;;;;;;4.32;3.00;;;33.90;99.90;;;;;;4854109;29;20258;-67
2023/09/15 11:04:25;;;;;;;3.97;2.90;;;33.30;99.90;;;;;;4867889;29;20684;-67
2023/09/15 11:06:53;;;;;;;3.08;2.75;;;34.30;99.90;;;;;;4877923;29;20208;-67
2023/09/15 11:09:21;;;;;;;3.72;2.90;;;35.00;99.90;;;;;;4886801;29;20208;-62
2023/09/15 11:11:52;;;;;;;3.70;2.88;;;30.60;97.20;;;;;;4881372;29;20538;-62
2023/09/15 11:14:21;;;;;;;4.80;2.75;;;32.60;99.90;;;;;;4856901;29;20619;-67
2023/09/15 11:16:50;;;;;;;4.38;3.13;;;32.30;99.90;;;;;;4862030;29;20660;-67
2023/09/15 11:19:19;;;;;;;4.57;3.10;;;34.00;99.90;;;;;;4881564;29;20192;-66
2023/09/15 11:21:47;;;;;;;5.65;3.17;;;34.40;99.90;;;;;;4863554;29;20755;-69
2023/09/15 11:24:15;;;;;;;3.47;2.95;;;33.90;99.90;;;;;;4868587;29;20218;-67
2023/09/15 11:26:52;;;;;;;3.80;3.20;;;31.40;99.90;;;;;;4872408;29;20201;-67
2023/09/15 11:29:27;;;;;;;3.05;2.72;;;30.40;99.90;;;;;;4854411;29;20304;-67
2023/09/15 11:31:56;;;;;;;3.72;2.85;;;31.30;99.90;;;;;;4863381;29;20225;-67
2023/09/15 11:34:23;;;;;;;3.50;3.20;;;32.40;99.90;;;;;;4867481;29;20257;-68
2023/09/15 11:36:55;;;;;;;3.67;2.95;;;32.60;99.90;;;;;;4875590;29;20884;-67
2023/09/15 11:39:23;;;;;;;5.13;3.00;;;33.90;99.90;;;;;;4882924;29;20249;-68
2023/09/15 11:41:53;;;;;;;3.53;3.22;;;34.30;99.90;;;;;;4876122;29;20265;-63
2023/09/15 11:44:21;;;;;;;3.13;2.70;;;33.40;99.90;;;;;;4868113;29;20192;-63
2023/09/15 11:46:50;;;;;;;3.20;2.90;;;31.70;98.40;;;;;;4870151;29;20205;-61
2023/09/15 11:49:18;;;;;;;4.68;3.10;;;30.90;99.90;;;;;;4878388;29;20496;-62
2023/09/15 11:51:46;;;;;;;5.40;2.92;;;32.20;99.90;;;;;;4851989;29;20198;-61
2023/09/15 11:54:13;;;;;;;9.10;6.32;;;30.90;99.90;;;;;;4873278;29;21156;-66
2023/09/15 11:56:42;;;;;;;4.35;3.05;;;29.40;99.90;;;;;;4875519;29;20190;-63
2023/09/15 11:59:14;;;;;;;5.32;2.92;;;28.50;99.90;;;;;;4877287;29;20197;-61
2023/09/15 12:01:41;;;;;;;4.43;3.03;;;29.20;99.90;;;;;;4875698;29;20219;-63
2023/09/15 12:04:09;;;;;;;7.10;3.50;;;30.20;99.90;;;;;;4858068;29;20977;-61
2023/09/15 12:06:40;;;;;;;3.70;2.90;;;29.80;99.90;;;;;;4875082;29;20728;-61
2023/09/15 12:09:11;;;;;;;3.33;2.45;;;30.20;99.90;;;;;;4872676;29;20309;-62
2023/09/15 12:11:44;;;;;;;6.03;2.88;;;29.80;99.90;;;;;;4878258;29;20249;-66
2023/09/15 12:14:15;;;;;;;3.83;3.20;;;29.40;99.90;;;;;;4875566;29;20327;-66
2023/09/15 12:16:46;;;;;;;4.30;3.00;;;29.20;99.90;;;;;;4870762;29;20273;-65
2023/09/15 12:19:16;;;;;;;3.67;3.38;;;29.20;99.90;;;;;;4877437;29;20201;-66
2023/09/15 12:21:53;;;;;;;2.90;2.70;;;26.90;99.90;;;;;;4876064;29;20202;-66
2023/09/15 12:24:21;;;;;;;4.50;2.95;;;27.70;99.90;;;;;;4874878;29;20208;-67
2023/09/15 12:26:50;;;;;;;3.22;2.95;;;27.80;99.90;;;;;;4874940;29;20209;-68
2023/09/15 12:29:17;;;;;;;3.80;3.15;;;28.70;99.90;;;;;;4872367;29;20620;-66
2023/09/15 12:31:44;;;;;;;3.55;2.70;;;29.80;99.90;;;;;;4873246;29;20301;-66
2023/09/15 12:34:19;;;;;;;3.95;3.10;;;30.50;99.90;;;;;;4875206;29;20360;-66
2023/09/15 12:36:49;;;;;;;3.20;2.90;;;29.50;99.90;;;;;;4875008;29;20304;-66
2023/09/15 12:39:16;;;;;;;3.50;2.88;;;28.40;99.90;;;;;;4886621;29;20201;-65
2023/09/15 12:41:43;;;;;;;3.55;3.22;;;26.50;99.90;;;;;;4873750;29;20222;-66
2023/09/15 12:44:11;;;;;;;3.78;2.70;;;27.00;99.90;;;;;;4872757;29;21062;-65
2023/09/15 12:46:39;;;;;;;3.00;2.70;;;27.20;99.90;;;;;;4874242;29;20651;-66
2023/09/15 12:49:06;;;;;;;7.40;3.45;;;27.90;99.90;;;;;;4867033;29;20209;-66
2023/09/15 12:51:33;;;;;;;3.30;3.00;;;27.30;99.90;;;;;;4869120;29;20220;-66
2023/09/15 12:54:00;;;;;;;4.80;3.53;;;26.80;99.90;;;;;;4885679;29;20237;-69
2023/09/15 12:56:27;;;;;;;3.13;2.83;;;25.70;99.90;;;;;;4880937;29;20225;-66
2023/09/15 12:58:54;;;;;;;3.47;3.10;;;25.30;99.90;;;;;;4873963;29;20694;-69